aviador You're here:

SAWE Decoded Metar

RIO GRANDE in ARGENTINA
Report Time2017-07-26 06:00:00
UTC Time2017-07-26 06:38:40
Flight Rules vfr VFR
Wind360° at 10 kt
W.Decomp.*RWY 07: 1.4 kt HW 9.9 kt LCW
Visibility9999 m
Phenomena:N/A
Clouds:N/A
Expected CloudBase > 400 ft AGL from Temp-Dew spread
CeilingNone
Temp05°C (ISA -10)
Dew Point04°C (93% RH)
AAT0.1°C
QNH0988 hPa
Density Alt-148 ft
Elevation72 ft
Report Wrong Elevation
Raw Report
METAR SAWE 260600Z 36010KT CAVOK 05/04 Q0988=

Extra information for SAWE:More info

Metar Taf Metar & Taf Last 4 Metars F.Rules Stats Wind Profile Meteogram Temp Stats Airport Information Weather charts Add Link Nearby VenuesMetar ALERT Operation Metar Decoded Social comments